Time;durP1;ratioP1;P1;durP2;ratioP2;P2;SDS_P1;SDS_P2;PMS_P1;PMS_P2;Temp;Humidity;BMP_temperature;BMP_pressure;BME280_temperature;BME280_humidity;BME280_pressure;Samples;Min_cycle;Max_cycle;Signal;HPM_P1;HPM_P2
2022/05/08 00:02:10;;;;;;;0.00;0.00;;;14.90;92.30;;;;;;4153514;28;20061;-69
2022/05/08 00:04:35;;;;;;;0.00;0.00;;;15.00;92.40;;;;;;4166955;28;20045;-68
2022/05/08 00:06:59;;;;;;;0.00;0.00;;;15.00;92.20;;;;;;4153635;28;20046;-67
2022/05/08 00:09:27;;;;;;;0.00;0.00;;;15.00;92.30;;;;;;4180729;28;20120;-71
2022/05/08 00:11:57;;;;;;;0.00;0.00;;;15.00;92.30;;;;;;4167726;28;20049;-68
2022/05/08 00:14:22;;;;;;;0.00;0.00;;;14.90;92.40;;;;;;4166838;28;20073;-69
2022/05/08 00:16:44;;;;;;;0.00;0.00;;;15.00;92.50;;;;;;4166814;28;20072;-68
2022/05/08 00:19:06;;;;;;;0.00;0.00;;;15.00;92.30;;;;;;4153106;28;20052;-67
2022/05/08 00:21:34;;;;;;;0.00;0.00;;;14.90;92.30;;;;;;4167454;28;20366;-68
2022/05/08 00:24:05;;;;;;;0.00;0.00;;;14.80;92.60;;;;;;4166622;28;20042;-70
2022/05/08 00:26:30;;;;;;;0.00;0.00;;;14.80;92.80;;;;;;4166619;28;20045;-69
2022/05/08 00:29:00;;;;;;;0.00;0.00;;;14.80;92.60;;;;;;4166026;28;20048;-69
2022/05/08 00:31:25;;;;;;;0.00;0.00;;;14.80;92.40;;;;;;4153033;28;20057;-68
2022/05/08 00:33:49;;;;;;;0.00;0.00;;;14.90;92.40;;;;;;4167390;28;20049;-69
2022/05/08 00:36:19;;;;;;;0.00;0.00;;;14.90;92.20;;;;;;4166616;28;20045;-68
2022/05/08 00:38:41;;;;;;;0.00;0.00;;;14.90;92.30;;;;;;4152958;28;20065;-65
2022/05/08 00:41:03;;;;;;;0.00;0.00;;;15.00;92.20;;;;;;4167153;28;20423;-71
2022/05/08 00:43:34;;;;;;;0.00;0.00;;;15.00;92.00;;;;;;4167288;28;20049;-69
2022/05/08 00:46:08;;;;;;;0.00;0.00;;;14.90;91.90;;;;;;4166270;28;20050;-67
2022/05/08 00:48:31;;;;;;;0.00;0.00;;;14.90;91.90;;;;;;4167058;28;20075;-67
2022/05/08 00:50:57;;;;;;;0.00;0.00;;;14.90;91.90;;;;;;4166147;28;20049;-68
2022/05/08 00:53:40;;;;;;;0.00;0.00;;;14.90;92.00;;;;;;4166192;28;20038;-67
2022/05/08 00:56:10;;;;;;;0.00;0.00;;;14.90;92.20;;;;;;4166987;28;20496;-68
2022/05/08 00:58:41;;;;;;;0.00;0.00;;;14.90;92.20;;;;;;4167025;28;20053;-67
2022/05/08 01:01:10;;;;;;;0.00;0.00;;;14.90;92.20;;;;;;4166879;28;20444;-70
2022/05/08 01:03:35;;;;;;;0.00;0.00;;;14.90;92.10;;;;;;4166229;28;20053;-69
2022/05/08 01:06:09;;;;;;;0.00;0.00;;;14.90;92.10;;;;;;4166723;28;20046;-68
2022/05/08 01:08:37;;;;;;;0.00;0.00;;;14.90;92.10;;;;;;4166852;28;20057;-68
2022/05/08 01:11:11;;;;;;;0.00;0.00;;;14.90;92.10;;;;;;4166055;28;20049;-71
2022/05/08 01:13:43;;;;;;;0.00;0.00;;;14.90;92.20;;;;;;4166846;28;20058;-65
2022/05/08 01:16:19;;;;;;;0.00;0.00;;;14.90;92.20;;;;;;4142354;28;20061;-65
2022/05/08 01:18:55;;;;;;;0.00;0.00;;;14.90;92.20;;;;;;4166817;28;20107;-69
2022/05/08 01:21:42;;;;;;;0.00;0.00;;;14.90;92.20;;;;;;4166555;28;20057;-70
2022/05/08 01:24:22;;;;;;;0.00;0.00;;;14.70;92.10;;;;;;4165813;28;20092;-67
2022/05/08 01:26:51;;;;;;;0.00;0.00;;;14.50;92.20;;;;;;4166031;28;20056;-69
2022/05/08 01:29:17;;;;;;;0.00;0.00;;;14.50;92.30;;;;;;4165666;28;20053;-70
2022/05/08 01:31:42;;;;;;;0.00;0.00;;;14.40;92.30;;;;;;4166428;28;20464;-70
2022/05/08 01:34:09;;;;;;;0.00;0.00;;;14.40;92.50;;;;;;4166536;28;20050;-68
2022/05/08 01:36:44;;;;;;;0.00;0.00;;;14.40;92.60;;;;;;4153210;28;20085;-69
2022/05/08 01:39:08;;;;;;;0.00;0.00;;;14.40;92.70;;;;;;4152041;28;20051;-70
2022/05/08 01:41:32;;;;;;;0.00;0.00;;;14.50;92.70;;;;;;4165307;28;20049;-69
2022/05/08 01:43:54;;;;;;;0.00;0.00;;;14.50;92.60;;;;;;4165706;28;20083;-69
2022/05/08 01:46:20;;;;;;;0.00;0.00;;;14.50;92.70;;;;;;4165532;28;20134;-67
2022/05/08 01:48:42;;;;;;;0.00;0.00;;;14.40;92.60;;;;;;4151638;28;20061;-69
2022/05/08 01:51:04;;;;;;;0.00;0.00;;;14.40;92.70;;;;;;4165710;28;20488;-68
2022/05/08 01:53:36;;;;;;;0.00;0.00;;;14.40;92.60;;;;;;4165512;28;20061;-68
2022/05/08 01:55:58;;;;;;;0.00;0.00;;;14.40;92.70;;;;;;4151846;28;20046;-70
2022/05/08 01:58:26;;;;;;;0.00;0.00;;;14.30;92.80;;;;;;4179202;28;20041;-67
2022/05/08 02:00:51;;;;;;;0.00;0.00;;;14.10;92.90;;;;;;4151680;28;20140;-68
2022/05/08 02:03:13;;;;;;;0.00;0.00;;;14.10;93.10;;;;;;4151555;28;20089;-71
2022/05/08 02:05:40;;;;;;;0.00;0.00;;;14.10;93.00;;;;;;4165203;28;20052;-71
2022/05/08 02:08:04;;;;;;;0.00;0.00;;;14.20;92.90;;;;;;4179107;28;20049;-66
2022/05/08 02:10:28;;;;;;;0.00;0.00;;;14.30;92.80;;;;;;4165158;28;20591;-73
2022/05/08 02:12:52;;;;;;;0.00;0.00;;;14.40;92.70;;;;;;4165074;28;20077;-71
2022/05/08 02:15:18;;;;;;;0.00;0.00;;;14.40;92.60;;;;;;4164814;28;20042;-70
2022/05/08 02:17:40;;;;;;;0.00;0.00;;;14.40;92.70;;;;;;4165253;28;20050;-70
2022/05/08 02:20:04;;;;;;;0.00;0.00;;;14.30;92.80;;;;;;4165206;28;20067;-71
2022/05/08 02:22:37;;;;;;;0.00;0.00;;;14.30;92.70;;;;;;4151269;28;20472;-68
2022/05/08 02:25:00;;;;;;;0.00;0.00;;;14.30;92.80;;;;;;4143740;28;20065;-69
2022/05/08 02:27:25;;;;;;;0.00;0.00;;;14.00;93.10;;;;;;4151238;28;20133;-67
2022/05/08 02:29:53;;;;;;;0.00;0.00;;;14.00;93.30;;;;;;4164997;28;20366;-71
2022/05/08 02:32:21;;;;;;;0.00;0.00;;;13.90;93.50;;;;;;4164825;28;20049;-69
2022/05/08 02:34:43;;;;;;;0.00;0.00;;;13.80;93.60;;;;;;4164898;28;20057;-67
2022/05/08 02:37:08;;;;;;;0.00;0.00;;;13.80;93.70;;;;;;4151154;28;20492;-66
2022/05/08 02:39:32;;;;;;;0.00;0.00;;;13.70;93.70;;;;;;4164631;28;20077;-68
2022/05/08 02:41:54;;;;;;;0.00;0.00;;;13.80;93.70;;;;;;4164732;28;20092;-71
2022/05/08 02:44:19;;;;;;;0.00;0.00;;;13.90;93.60;;;;;;4164765;28;20407;-71
2022/05/08 02:46:41;;;;;;;0.00;0.00;;;14.00;93.50;;;;;;4164752;28;20045;-67
2022/05/08 02:49:05;;;;;;;0.00;0.00;;;14.10;93.30;;;;;;4150695;28;20405;-71
2022/05/08 02:51:32;;;;;;;0.00;0.00;;;14.20;93.20;;;;;;4150340;28;20141;-71
2022/05/08 02:53:54;;;;;;;0.00;0.00;;;14.20;93.10;;;;;;4150414;28;20128;-68
2022/05/08 02:59:13;;;;;;;0.00;0.00;;;14.20;93.10;;;;;;4143913;28;20140;-67
2022/05/08 03:01:35;;;;;;;0.00;0.00;;;14.20;93.10;;;;;;4150792;28;20129;-73
2022/05/08 03:04:02;;;;;;;0.00;0.00;;;14.20;93.00;;;;;;4137327;28;20064;-68
2022/05/08 03:06:26;;;;;;;0.00;0.00;;;14.20;93.00;;;;;;4164428;28;20125;-70
2022/05/08 03:08:51;;;;;;;0.00;0.00;;;14.20;93.00;;;;;;4150921;28;20515;-68
2022/05/08 03:11:25;;;;;;;0.00;0.00;;;14.20;92.90;;;;;;4150439;28;20050;-69
2022/05/08 03:13:50;;;;;;;0.00;0.00;;;14.20;92.90;;;;;;4164294;28;20176;-70
2022/05/08 03:16:17;;;;;;;0.00;0.00;;;14.10;92.80;;;;;;4150417;28;20060;-68
2022/05/08 03:18:41;;;;;;;0.00;0.00;;;14.10;92.80;;;;;;4164323;28;20058;-70
2022/05/08 03:21:05;;;;;;;0.00;0.00;;;14.10;92.80;;;;;;4164100;28;20520;-70
2022/05/08 03:23:30;;;;;;;0.00;0.00;;;14.10;92.70;;;;;;4150865;28;20053;-68
2022/05/08 03:25:52;;;;;;;0.00;0.00;;;14.10;92.80;;;;;;4150450;28;20093;-70
2022/05/08 03:28:15;;;;;;;0.00;0.00;;;14.10;92.70;;;;;;4164171;28;20049;-69
2022/05/08 03:30:40;;;;;;;0.00;0.00;;;14.10;92.70;;;;;;4164078;28;20108;-72
2022/05/08 03:33:06;;;;;;;0.00;0.00;;;14.10;92.70;;;;;;4150397;28;20050;-68
2022/05/08 03:35:31;;;;;;;0.00;0.00;;;14.20;92.70;;;;;;4150421;28;20117;-68
2022/05/08 03:37:57;;;;;;;0.00;0.00;;;14.10;92.80;;;;;;4150940;28;20048;-68
2022/05/08 03:40:19;;;;;;;0.00;0.00;;;14.10;92.90;;;;;;4164253;28;20060;-68
2022/05/08 03:42:45;;;;;;;0.00;0.00;;;14.00;92.90;;;;;;4164069;28;20104;-67
2022/05/08 03:45:11;;;;;;;0.00;0.00;;;14.00;92.90;;;;;;4150681;28;20081;-69
2022/05/08 03:47:33;;;;;;;0.00;0.00;;;14.10;93.10;;;;;;4150140;28;20456;-68
2022/05/08 03:49:59;;;;;;;0.00;0.00;;;14.10;93.10;;;;;;4164052;28;20132;-68
2022/05/08 03:52:24;;;;;;;0.00;0.00;;;14.00;93.10;;;;;;4150377;28;20050;-71
2022/05/08 03:54:49;;;;;;;0.00;0.00;;;13.80;93.30;;;;;;4164143;28;20119;-68
2022/05/08 03:57:11;;;;;;;0.00;0.00;;;13.80;93.50;;;;;;4150400;28;20037;-68
2022/05/08 03:59:38;;;;;;;0.00;0.00;;;13.80;93.50;;;;;;4150194;28;20123;-67
2022/05/08 04:02:02;;;;;;;0.00;0.00;;;13.80;93.50;;;;;;4163856;28;20124;-71
2022/05/08 04:04:25;;;;;;;0.00;0.00;;;13.90;93.60;;;;;;4167267;28;20358;-68
2022/05/08 04:06:46;;;;;;;0.00;0.00;;;14.00;93.50;;;;;;4153060;28;20133;-69
2022/05/08 04:09:11;;;;;;;0.00;0.00;;;14.10;93.50;;;;;;4153500;28;20061;-67
2022/05/08 04:11:33;;;;;;;0.00;0.00;;;14.10;93.50;;;;;;4153228;28;20488;-70
2022/05/08 04:13:59;;;;;;;0.00;0.00;;;14.10;93.50;;;;;;4153115;28;20056;-68
2022/05/08 04:16:22;;;;;;;0.00;0.00;;;14.10;93.40;;;;;;4153165;28;20385;-67
2022/05/08 04:18:44;;;;;;;0.00;0.00;;;14.20;93.40;;;;;;4166920;28;20061;-71
2022/05/08 04:21:06;;;;;;;0.00;0.00;;;14.20;93.40;;;;;;4166837;28;20049;-69
2022/05/08 04:26:11;;;;;;;0.00;0.00;;;14.10;93.30;;;;;;4152974;28;20112;-69
2022/05/08 04:28:33;;;;;;;0.00;0.00;;;14.20;93.40;;;;;;4153157;28;20050;-70
2022/05/08 04:30:55;;;;;;;0.00;0.00;;;14.20;93.40;;;;;;4152964;28;20481;-68
2022/05/08 04:33:22;;;;;;;0.00;0.00;;;14.20;93.40;;;;;;4166717;28;20057;-71
2022/05/08 04:35:46;;;;;;;0.00;0.00;;;14.20;93.40;;;;;;4152773;28;20133;-70
2022/05/08 04:38:11;;;;;;;0.00;0.00;;;14.20;93.40;;;;;;4152965;28;20049;-68
2022/05/08 04:40:34;;;;;;;0.00;0.00;;;14.20;93.50;;;;;;4166548;28;20432;-69
2022/05/08 04:42:57;;;;;;;0.00;0.00;;;14.10;93.50;;;;;;4152679;28;20157;-67
2022/05/08 04:45:18;;;;;;;0.00;0.00;;;14.10;93.40;;;;;;4152960;28;20046;-70
2022/05/08 04:47:47;;;;;;;0.00;0.00;;;14.10;93.40;;;;;;4152346;28;20124;-67
2022/05/08 04:50:12;;;;;;;0.00;0.00;;;14.20;93.40;;;;;;4166534;28;20080;-67
2022/05/08 04:52:36;;;;;;;0.00;0.00;;;14.20;93.30;;;;;;4166456;28;20057;-68
2022/05/08 04:55:03;;;;;;;0.00;0.00;;;14.20;93.30;;;;;;4152798;28;20142;-67
2022/05/08 04:57:30;;;;;;;0.00;0.00;;;14.20;93.30;;;;;;4152415;28;20060;-71
2022/05/08 04:59:52;;;;;;;0.00;0.00;;;14.20;93.30;;;;;;4152581;28;20116;-68
2022/05/08 05:02:16;;;;;;;0.00;0.00;;;14.20;93.30;;;;;;4152433;28;20464;-67
2022/05/08 05:04:40;;;;;;;0.00;0.00;;;14.20;93.20;;;;;;4166269;28;20162;-68
2022/05/08 05:07:05;;;;;;;0.00;0.00;;;14.10;93.10;;;;;;4166171;28;20124;-67
2022/05/08 05:09:27;;;;;;;0.00;0.00;;;14.10;93.20;;;;;;4152382;28;20518;-68
2022/05/08 05:11:49;;;;;;;0.00;0.00;;;14.10;93.30;;;;;;4152564;28;20050;-66
2022/05/08 05:14:16;;;;;;;0.00;0.00;;;14.10;93.40;;;;;;4165526;28;20133;-68
2022/05/08 05:16:38;;;;;;;0.00;0.00;;;14.00;93.50;;;;;;4152337;28;20060;-70
2022/05/08 05:19:04;;;;;;;0.00;0.00;;;14.00;93.50;;;;;;4152455;28;20054;-68
2022/05/08 05:21:26;;;;;;;0.00;0.00;;;14.00;93.70;;;;;;4152153;28;20054;-68
2022/05/08 05:23:48;;;;;;;0.00;0.00;;;13.90;93.80;;;;;;4138975;28;20049;-67
2022/05/08 05:26:10;;;;;;;0.00;0.00;;;14.00;93.60;;;;;;4146349;28;20096;-71
2022/05/08 05:28:32;;;;;;;0.00;0.00;;;14.10;93.70;;;;;;4152288;28;20461;-68
2022/05/08 05:31:01;;;;;;;0.00;0.00;;;14.20;93.60;;;;;;4172505;28;20087;-69
2022/05/08 05:33:23;;;;;;;0.00;0.00;;;14.20;93.40;;;;;;4154760;28;20508;-67
2022/05/08 05:35:47;;;;;;;0.00;0.00;;;14.30;93.20;;;;;;4173852;28;20061;-66
2022/05/08 05:38:09;;;;;;;0.00;0.00;;;14.30;93.10;;;;;;4176132;28;20068;-69
2022/05/08 05:40:31;;;;;;;0.00;0.00;;;14.40;93.10;;;;;;4196407;28;20056;-68
2022/05/08 05:42:53;;;;;;;0.00;0.00;;;14.40;92.90;;;;;;4198500;28;20048;-69
2022/05/08 05:45:20;;;;;;;0.00;0.00;;;14.40;92.90;;;;;;4198220;28;20082;-68
2022/05/08 05:47:52;;;;;;;0.00;0.00;;;14.40;92.90;;;;;;4180787;28;20041;-69
2022/05/08 05:50:30;;;;;;;0.00;0.00;;;14.50;92.90;;;;;;4170361;28;20515;-69
2022/05/08 05:52:53;;;;;;;0.00;0.00;;;14.50;92.80;;;;;;4170342;28;20627;-67
2022/05/08 05:55:18;;;;;;;0.00;0.00;;;14.50;92.60;;;;;;4170354;28;20061;-67
2022/05/08 05:57:45;;;;;;;0.00;0.00;;;14.50;92.60;;;;;;4184109;28;20106;-67
2022/05/08 06:00:15;;;;;;;0.00;0.00;;;14.60;92.60;;;;;;4170443;28;20076;-68
2022/05/08 06:02:37;;;;;;;0.00;0.00;;;14.60;92.40;;;;;;4204418;28;20047;-69
2022/05/08 06:05:03;;;;;;;0.00;0.00;;;14.60;92.40;;;;;;4170227;28;20033;-69
2022/05/08 06:07:30;;;;;;;0.00;0.00;;;14.50;92.30;;;;;;4184050;28;20098;-68
2022/05/08 06:09:57;;;;;;;0.00;0.00;;;14.50;92.30;;;;;;4193050;28;20040;-69
2022/05/08 06:12:20;;;;;;;0.00;0.00;;;14.50;92.20;;;;;;4200610;28;20065;-67
2022/05/08 06:14:42;;;;;;;0.00;0.00;;;14.60;92.20;;;;;;4212523;28;20044;-68
2022/05/08 06:17:04;;;;;;;0.00;0.00;;;14.60;92.00;;;;;;4199153;28;20518;-69
2022/05/08 06:19:26;;;;;;;0.00;0.00;;;14.60;91.90;;;;;;4173031;28;20083;-69
2022/05/08 06:21:49;;;;;;;0.00;0.00;;;14.70;92.00;;;;;;4186281;28;20126;-68
2022/05/08 06:24:11;;;;;;;0.00;0.00;;;14.80;92.00;;;;;;4186784;28;20053;-68
2022/05/08 06:26:33;;;;;;;0.00;0.00;;;14.80;92.10;;;;;;4185782;28;20108;-70
2022/05/08 06:28:58;;;;;;;0.00;0.00;;;14.80;92.20;;;;;;4200377;28;20180;-68
2022/05/08 06:31:22;;;;;;;0.00;0.00;;;14.80;92.40;;;;;;4179624;28;20049;-68
2022/05/08 06:33:45;;;;;;;0.00;0.00;;;14.80;92.70;;;;;;4170228;28;20464;-66
2022/05/08 06:36:14;;;;;;;0.00;0.00;;;14.70;92.80;;;;;;4170325;28;20049;-71
2022/05/08 06:38:36;;;;;;;0.00;0.00;;;14.70;93.00;;;;;;4184005;28;20049;-68
2022/05/08 06:41:01;;;;;;;0.00;0.00;;;14.80;93.00;;;;;;4183903;28;20127;-68
2022/05/08 06:43:23;;;;;;;0.00;0.00;;;14.80;93.00;;;;;;4169825;28;20041;-69
2022/05/08 06:45:47;;;;;;;0.00;0.00;;;14.80;93.00;;;;;;4183834;28;20041;-67
2022/05/08 06:48:12;;;;;;;0.00;0.00;;;14.80;93.00;;;;;;4183609;28;20445;-69
2022/05/08 06:50:39;;;;;;;0.00;0.00;;;14.70;93.10;;;;;;4183802;28;20107;-68
2022/05/08 06:53:04;;;;;;;0.00;0.00;;;14.80;93.10;;;;;;4197675;28;20048;-68
2022/05/08 06:55:29;;;;;;;0.00;0.00;;;14.90;92.90;;;;;;4183713;28;20132;-68
2022/05/08 06:57:51;;;;;;;0.00;0.00;;;14.90;92.70;;;;;;4183728;28;20052;-68
2022/05/08 07:02:54;;;;;;;0.00;0.00;;;14.90;92.80;;;;;;4169863;28;20079;-68
2022/05/08 07:05:20;;;;;;;0.00;0.00;;;14.90;92.60;;;;;;4169780;28;20049;-68
2022/05/08 07:07:42;;;;;;;0.00;0.00;;;15.00;92.60;;;;;;4170103;28;20061;-70
2022/05/08 07:10:10;;;;;;;0.00;0.00;;;15.00;92.50;;;;;;4169845;28;20045;-70
2022/05/08 07:12:34;;;;;;;0.00;0.00;;;15.10;92.50;;;;;;4183595;28;20045;-68
2022/05/08 07:14:58;;;;;;;0.00;0.00;;;15.20;92.30;;;;;;4169978;28;20646;-68
2022/05/08 07:17:23;;;;;;;0.00;0.00;;;15.20;91.90;;;;;;4169796;28;20053;-68
2022/05/08 07:19:47;;;;;;;0.00;0.00;;;15.20;91.90;;;;;;4183577;28;20060;-70
2022/05/08 07:22:12;;;;;;;0.00;0.00;;;15.20;91.70;;;;;;4169618;28;20050;-68
2022/05/08 07:24:41;;;;;;;0.00;0.00;;;15.10;91.60;;;;;;4183726;28;20683;-68
2022/05/08 07:27:11;;;;;;;0.00;0.00;;;15.10;91.50;;;;;;4183481;28;20079;-67
2022/05/08 07:29:33;;;;;;;0.00;0.00;;;15.20;91.50;;;;;;4197406;28;20373;-68
2022/05/08 07:31:55;;;;;;;0.00;0.00;;;15.00;91.50;;;;;;4172791;28;20045;-69
2022/05/08 07:37:03;;;;;;;0.00;0.00;;;14.90;91.70;;;;;;4183816;28;20099;-67
2022/05/08 07:39:27;;;;;;;0.00;0.00;;;14.90;91.70;;;;;;4200677;28;20453;-66
2022/05/08 07:41:52;;;;;;;0.00;0.00;;;14.90;91.60;;;;;;4200823;28;20479;-69
2022/05/08 07:44:19;;;;;;;0.00;0.00;;;14.90;91.60;;;;;;4200819;28;20118;-68
2022/05/08 07:46:43;;;;;;;0.00;0.00;;;15.00;91.50;;;;;;4173218;28;20128;-68
2022/05/08 07:49:05;;;;;;;0.00;0.00;;;15.10;91.40;;;;;;4186670;28;20049;-68
2022/05/08 07:51:29;;;;;;;0.00;0.00;;;15.10;91.30;;;;;;4159110;28;20094;-67
2022/05/08 07:53:57;;;;;;;0.00;0.00;;;15.20;91.40;;;;;;4200627;28;20614;-68
2022/05/08 07:56:22;;;;;;;0.00;0.00;;;15.30;91.20;;;;;;4200653;28;20036;-69
2022/05/08 07:58:46;;;;;;;0.00;0.00;;;15.50;91.00;;;;;;4186311;28;20045;-69
2022/05/08 08:01:08;;;;;;;0.00;0.00;;;15.50;91.00;;;;;;4186681;28;20049;-68
2022/05/08 08:03:32;;;;;;;0.00;0.00;;;15.50;90.80;;;;;;4186355;28;20056;-67
2022/05/08 08:05:55;;;;;;;0.00;0.00;;;15.50;90.60;;;;;;4200402;28;20040;-69
2022/05/08 08:08:35;;;;;;;0.00;0.00;;;15.60;90.80;;;;;;4189882;28;20049;-68
2022/05/08 08:11:01;;;;;;;0.00;0.00;;;15.70;90.60;;;;;;4174245;28;20052;-70
2022/05/08 08:13:24;;;;;;;0.00;0.00;;;15.90;90.40;;;;;;4158680;28;20081;-67
2022/05/08 08:15:48;;;;;;;0.00;0.00;;;16.00;90.40;;;;;;4186339;28;20106;-68
2022/05/08 08:18:16;;;;;;;0.00;0.00;;;16.10;90.10;;;;;;4172295;28;20084;-68
2022/05/08 08:20:46;;;;;;;0.00;0.00;;;16.00;89.30;;;;;;4172552;28;20041;-68
2022/05/08 08:23:11;;;;;;;0.00;0.00;;;16.00;89.30;;;;;;4172075;28;20057;-69
2022/05/08 08:25:38;;;;;;;0.00;0.00;;;16.00;88.90;;;;;;4172400;28;20151;-69
2022/05/08 08:28:02;;;;;;;0.00;0.00;;;16.10;89.50;;;;;;4172013;28;20049;-68
2022/05/08 08:30:26;;;;;;;0.00;0.00;;;16.20;89.20;;;;;;4185916;28;20040;-68
2022/05/08 08:32:51;;;;;;;0.00;0.00;;;16.10;88.20;;;;;;4174514;28;20095;-71
2022/05/08 08:35:17;;;;;;;0.00;0.00;;;16.10;88.60;;;;;;4202459;28;20059;-67
2022/05/08 08:37:44;;;;;;;0.00;0.00;;;16.30;88.90;;;;;;4202477;28;20489;-70
2022/05/08 08:40:12;;;;;;;0.00;0.00;;;16.40;88.20;;;;;;4188560;28;20052;-68
2022/05/08 08:42:41;;;;;;;0.00;0.00;;;16.70;87.90;;;;;;4202370;28;20048;-68
2022/05/08 08:47:56;;;;;;;0.00;0.00;;;17.00;87.40;;;;;;4188075;28;20065;-69
2022/05/08 08:50:26;;;;;;;0.00;0.00;;;17.10;86.30;;;;;;4201560;28;20042;-67
2022/05/08 08:52:53;;;;;;;0.00;0.00;;;16.90;85.70;;;;;;4188338;28;20479;-68
2022/05/08 08:55:20;;;;;;;0.00;0.00;;;16.80;86.00;;;;;;4188579;28;20095;-68
2022/05/08 08:57:45;;;;;;;0.00;0.00;;;16.80;86.00;;;;;;4202363;28;20131;-69
2022/05/08 09:00:10;;;;;;;0.00;0.00;;;16.80;86.20;;;;;;4202245;28;20470;-66
2022/05/08 09:02:40;;;;;;;0.00;0.00;;;16.80;85.60;;;;;;4201866;28;20060;-68
2022/05/08 09:05:12;;;;;;;0.00;0.00;;;16.80;85.70;;;;;;4187910;28;20102;-68
2022/05/08 09:07:36;;;;;;;0.00;0.00;;;16.80;85.60;;;;;;4196486;28;20464;-69
2022/05/08 09:10:35;;;;;;;0.00;0.00;;;16.80;84.90;;;;;;4187302;28;20048;-68
2022/05/08 09:13:03;;;;;;;0.00;0.00;;;17.00;85.30;;;;;;4216046;28;20105;-68
2022/05/08 09:15:35;;;;;;;0.00;0.00;;;16.90;85.40;;;;;;4201963;28;20040;-67
2022/05/08 09:18:08;;;;;;;0.00;0.00;;;17.00;85.50;;;;;;4202037;28;20390;-68
2022/05/08 09:20:39;;;;;;;0.00;0.00;;;17.10;85.30;;;;;;4187681;28;20074;-68
2022/05/08 09:23:06;;;;;;;0.00;0.00;;;17.20;84.80;;;;;;4201468;28;20040;-67
2022/05/08 09:25:59;;;;;;;0.00;0.00;;;17.30;84.80;;;;;;4215765;28;20495;-69
2022/05/08 09:28:28;;;;;;;0.00;0.00;;;17.30;84.20;;;;;;4201716;28;20125;-67
2022/05/08 09:31:03;;;;;;;0.00;0.00;;;17.10;84.40;;;;;;4201462;28;20043;-68
2022/05/08 09:33:28;;;;;;;0.00;0.00;;;17.10;83.90;;;;;;4160560;28;20052;-68
2022/05/08 09:35:53;;;;;;;0.00;0.00;;;17.20;83.90;;;;;;4201535;28;20083;-68
2022/05/08 09:38:39;;;;;;;0.00;0.00;;;17.40;84.20;;;;;;4201449;28;20040;-67
2022/05/08 09:41:07;;;;;;;0.00;0.00;;;17.80;83.90;;;;;;4169185;28;20041;-66
2022/05/08 09:43:29;;;;;;;0.00;0.00;;;17.90;83.70;;;;;;4154196;28;20061;-66
2022/05/08 09:46:03;;;;;;;0.00;0.00;;;17.60;83.30;;;;;;4182167;28;20043;-67
2022/05/08 09:48:35;;;;;;;0.00;0.00;;;17.60;83.70;;;;;;4154809;28;20111;-69
2022/05/08 09:51:00;;;;;;;0.00;0.00;;;17.60;83.80;;;;;;4154507;28;20046;-68
2022/05/08 09:53:25;;;;;;;0.00;0.00;;;17.60;83.70;;;;;;4154380;28;20107;-69
2022/05/08 09:55:50;;;;;;;0.00;0.00;;;17.40;83.80;;;;;;4168129;28;20095;-66
2022/05/08 09:58:13;;;;;;;0.00;0.00;;;17.50;84.30;;;;;;4167940;28;20059;-68
2022/05/08 10:00:45;;;;;;;0.00;0.00;;;17.50;83.90;;;;;;4154016;28;20077;-67
2022/05/08 10:03:07;;;;;;;0.00;0.00;;;17.70;83.20;;;;;;4167893;28;20123;-68
2022/05/08 10:05:32;;;;;;;0.00;0.00;;;17.80;83.50;;;;;;4181843;28;20040;-67
2022/05/08 10:07:55;;;;;;;0.00;0.00;;;18.00;83.20;;;;;;4181748;28;20380;-68
2022/05/08 10:15:40;;;;;;;0.00;0.00;;;18.10;83.60;;;;;;4181787;28;20052;-71
2022/05/08 10:18:24;;;;;;;0.00;0.00;;;18.30;82.40;;;;;;4167521;28;20375;-69
2022/05/08 10:21:03;;;;;;;0.00;0.00;;;18.60;82.30;;;;;;4167857;28;20375;-68
2022/05/08 10:23:47;;;;;;;0.00;0.00;;;18.80;80.80;;;;;;4181511;28;20119;-66
2022/05/08 10:26:16;;;;;;;0.00;0.00;;;18.80;80.70;;;;;;4167513;28;20446;-67
2022/05/08 10:29:12;;;;;;;0.00;0.00;;;18.90;81.60;;;;;;4181282;28;20052;-68
2022/05/08 10:31:51;;;;;;;0.00;0.00;;;18.90;81.00;;;;;;4167030;28;20046;-67
2022/05/08 10:34:17;;;;;;;0.00;0.00;;;19.20;80.00;;;;;;4167181;28;20461;-67
2022/05/08 10:37:21;;;;;;;0.00;0.00;;;19.10;77.40;;;;;;4167421;28;20049;-67
2022/05/08 10:39:51;;;;;;;0.00;0.00;;;19.20;80.00;;;;;;4167098;28;20041;-70
2022/05/08 10:42:29;;;;;;;0.00;0.00;;;19.20;79.60;;;;;;4167251;28;20053;-67
2022/05/08 10:44:56;;;;;;;0.00;0.00;;;19.40;79.70;;;;;;4181406;28;20052;-68
2022/05/08 10:47:36;;;;;;;0.00;0.00;;;19.40;79.90;;;;;;4171320;28;20492;-66
2022/05/08 10:50:13;;;;;;;0.00;0.00;;;19.60;79.50;;;;;;4171738;28;20067;-71
2022/05/08 10:52:46;;;;;;;0.00;0.00;;;19.80;79.50;;;;;;4170308;28;20367;-69
2022/05/08 10:55:18;;;;;;;0.00;0.00;;;19.80;79.00;;;;;;4171530;28;20046;-68
2022/05/08 10:57:45;;;;;;;0.00;0.00;;;19.70;78.30;;;;;;4171185;28;20436;-67
2022/05/08 11:00:09;;;;;;;0.00;0.00;;;19.50;79.50;;;;;;4170598;28;20076;-67
2022/05/08 11:02:51;;;;;;;0.00;0.00;;;19.70;80.90;;;;;;4170298;28;20063;-69
2022/05/08 11:05:31;;;;;;;0.00;0.00;;;19.80;78.30;;;;;;4183822;28;20048;-67
2022/05/08 11:07:59;;;;;;;0.00;0.00;;;19.70;78.20;;;;;;4170200;28;20045;-69
2022/05/08 11:10:34;;;;;;;0.00;0.00;;;19.70;78.30;;;;;;4141138;28;20054;-68
2022/05/08 11:13:00;;;;;;;0.00;0.00;;;19.70;78.80;;;;;;4167732;28;20056;-71
2022/05/08 11:15:23;;;;;;;0.00;0.00;;;19.70;78.00;;;;;;4183762;28;20056;-67
2022/05/08 11:18:09;;;;;;;0.00;0.00;;;19.80;78.40;;;;;;4170211;28;20152;-68
2022/05/08 11:20:36;;;;;;;0.00;0.00;;;20.00;76.60;;;;;;4169846;28;20041;-67
2022/05/08 11:23:00;;;;;;;0.00;0.00;;;20.00;75.10;;;;;;4184012;28;20506;-69
2022/05/08 11:25:23;;;;;;;0.00;0.00;;;20.00;75.50;;;;;;4170578;28;20084;-70
2022/05/08 11:27:51;;;;;;;0.00;0.00;;;20.00;74.60;;;;;;4167609;28;20068;-68
2022/05/08 11:30:15;;;;;;;0.00;0.00;;;19.80;74.70;;;;;;4167338;28;20046;-67
2022/05/08 11:38:13;;;;;;;0.00;0.00;;;19.80;73.80;;;;;;4181495;28;20361;-68
2022/05/08 11:40:39;;;;;;;0.00;0.00;;;19.60;74.10;;;;;;4167791;28;20072;-69
2022/05/08 11:43:02;;;;;;;0.00;0.00;;;19.80;74.20;;;;;;4167589;28;20566;-68
2022/05/08 11:45:26;;;;;;;0.00;0.00;;;20.00;74.60;;;;;;4167613;28;20038;-70
2022/05/08 11:47:53;;;;;;;0.00;0.00;;;20.10;73.90;;;;;;4166966;28;20061;-67
2022/05/08 11:50:20;;;;;;;0.00;0.00;;;20.20;74.60;;;;;;4167266;28;20045;-68
2022/05/08 11:52:43;;;;;;;0.00;0.00;;;20.00;73.10;;;;;;4153322;28;20054;-69
2022/05/08 11:55:08;;;;;;;0.00;0.00;;;20.00;73.80;;;;;;4167323;28;20104;-67
2022/05/08 11:57:44;;;;;;;0.00;0.00;;;20.30;74.40;;;;;;4167298;28;20524;-69
2022/05/08 12:00:15;;;;;;;0.00;0.00;;;20.40;75.00;;;;;;4167172;28;20045;-68
2022/05/08 12:02:46;;;;;;;0.00;0.00;;;20.40;74.80;;;;;;4167100;28;20050;-68
2022/05/08 12:05:21;;;;;;;0.00;0.00;;;20.20;72.20;;;;;;4167066;28;20046;-68
2022/05/08 12:07:46;;;;;;;0.00;0.00;;;20.00;71.90;;;;;;4153452;28;20126;-68
2022/05/08 12:10:11;;;;;;;0.00;0.00;;;19.80;72.60;;;;;;4166921;28;20128;-67
2022/05/08 12:12:38;;;;;;;0.00;0.00;;;19.70;71.30;;;;;;4192588;28;20044;-68
2022/05/08 12:15:21;;;;;;;0.00;0.00;;;19.40;71.10;;;;;;4199788;28;20052;-66
2022/05/08 12:17:43;;;;;;;0.00;0.00;;;19.40;73.20;;;;;;4138055;28;20054;-67
2022/05/08 12:20:13;;;;;;;0.00;0.00;;;19.30;73.10;;;;;;4154215;28;20085;-67
2022/05/08 12:22:37;;;;;;;0.00;0.00;;;19.30;73.90;;;;;;4168890;28;20088;-67
2022/05/08 12:25:06;;;;;;;0.00;0.00;;;19.40;74.10;;;;;;4197822;28;20475;-67
2022/05/08 12:27:29;;;;;;;0.00;0.00;;;19.60;74.00;;;;;;4171497;28;20584;-68
2022/05/08 12:29:53;;;;;;;0.00;0.00;;;19.60;74.20;;;;;;4202720;28;20120;-67
2022/05/08 12:32:17;;;;;;;0.00;0.00;;;19.50;74.30;;;;;;4198962;28;20052;-66
2022/05/08 12:34:47;;;;;;;0.00;0.00;;;19.50;74.30;;;;;;4198789;28;20127;-67
2022/05/08 12:37:13;;;;;;;0.00;0.00;;;19.30;75.00;;;;;;4199154;28;20475;-66
2022/05/08 12:39:35;;;;;;;0.00;0.00;;;19.30;75.00;;;;;;4199006;28;20040;-67
2022/05/08 12:41:57;;;;;;;0.00;0.00;;;19.20;74.40;;;;;;4171119;28;20515;-67
2022/05/08 12:44:24;;;;;;;0.00;0.00;;;19.30;74.10;;;;;;4157146;28;20096;-66
2022/05/08 12:46:51;;;;;;;0.00;0.00;;;19.20;74.10;;;;;;4189284;28;20053;-66
2022/05/08 12:49:16;;;;;;;0.00;0.00;;;19.20;74.30;;;;;;4182249;28;20049;-65
2022/05/08 12:51:40;;;;;;;0.00;0.00;;;19.20;73.90;;;;;;4169771;28;20049;-66
2022/05/08 12:54:03;;;;;;;0.00;0.00;;;19.20;73.60;;;;;;4165486;28;20046;-68
2022/05/08 12:56:25;;;;;;;0.00;0.00;;;19.30;74.50;;;;;;4152202;28;20053;-67
2022/05/08 13:01:30;;;;;;;0.00;0.00;;;19.80;73.90;;;;;;4195775;28;20055;-66
2022/05/08 13:03:54;;;;;;;0.00;0.00;;;19.90;73.80;;;;;;4195599;28;20105;-69
2022/05/08 13:06:18;;;;;;;0.00;0.00;;;19.90;74.40;;;;;;4183132;28;20041;-65
2022/05/08 13:08:43;;;;;;;0.00;0.00;;;20.00;74.50;;;;;;4196994;28;20048;-67
2022/05/08 13:11:05;;;;;;;0.00;0.00;;;20.10;73.90;;;;;;4168952;28;20063;-67
2022/05/08 13:13:27;;;;;;;0.00;0.00;;;20.20;73.00;;;;;;4182919;28;20037;-66